KSPW/SPW METAR and TAF weather

Enter ICAO airport designator
Station Type Date Time Source
KSPW METAR 2019/02/16 02:53 UTC NOAA

KSPW 160253Z AUTO 35009KT 10SM CLR M15/M19 A3012 RMK AO2 SLP234 T11501189 50000


Station Type Date Time Source
KSPW Decoded METAR 2019/02/16 02:53 UTC NOAA

SPENCER MUNICIPAL AIRPORT, IA, United States (KSPW) 43-10N 95-13W 403M
Feb 15, 2019 - 09:53 PM EST / 2019.02.16 0253 UTC
Wind: from the N (350 degrees) at 10 MPH (9 KT):0
Visibility: 10 mile(s):0
Sky conditions: clear
Temperature: 5.0 F (-15.0 C)
Windchill: -9 F (-23 C):2
Dew Point: -2.0 F (-18.9 C)
Relative Humidity: 72%
Pressure (altimeter): 30.12 in. Hg (1019 hPa)
Pressure tendency: 0.00 inches (0.0 hPa) higher than three hours ago
ob: KSPW 160253Z AUTO 35009KT 10SM CLR M15/M19 A3012 RMK AO2 SLP234 T11501189 50000
cycle: 3

Station Type Date Time Source
KSPW TAF UTC NOAA

Error!


Example: see airport list